Cecil, Georgia
Current Conditions -  °F | °C
As of 8:58 PM on Saturday 25 Oct 2014 (Local Time) from KVAD Reporting Station
Clear Clear  
Wind Chill: 59°   Ceiling: Unl
Heat Index: 59°   Visibility: 10mi
Dew Point: 47°   Wind: 2mph
Humidity: 63%   Direction: 270°W
Pressure: 30.01"   Gusts: NA
Location:  31.05°N, 83.39°W
Report Text: KVAD 260058Z AUTO 27002KT 10SM CLR 15/08 A3001 RMK AO2 SLP164 T01510082 $
Loading
Personal Weather Stations






























Interactive Weather Map
Tropical Storm Tracking
New forecast layout! Learn more

10-Day Weather Forecast

Advertisements
Track Severe Weather on mobile